Excelsior, Minnesota
Current Conditions -  °F | °C
As of 5:53 AM on Saturday 22 Nov 2014 (Local Time) from KFCM Reporting Station
Haze Haze  
Wind Chill: 28°   Ceiling: 700
Heat Index: 36°   Visibility: 4mi
Dew Point: 33°   Wind: 10mph
Humidity: 89%   Direction: 200°SSW
Pressure: 29.77"   Gusts: NA
Location:  44.9°N, 93.57°W
Report Text: KFCM 221153Z 20009KT 4SM BR OVC007 02/01 A2977 RMK AO2 SLP090 T00220006 10022 20011 56017
Loading
Personal Weather Stations






























Interactive Weather Map New forecast layout! Learn more

10-Day Weather Forecast

Advertisements
Track Severe Weather on mobile